Terminal Aerodrome Forecast
Issued by NWS Oklahoma City, OK

Home | Current Version | Previous Version | Text Only | Print | Product List | Glossary On
Versions: 1 2 3 4 5 6 7 8 9 10 11 12 13 14 15 16 17 18 19 20 21 22 23 24 25 26 27 28 29 30
423
FTUS44 KOUN 190827 AAB
TAFOUN
TAF AMD
KOUN 190827Z 1908/2006 18008KT P6SM OVC008
      TEMPO 1909/1912 3SM BR OVC005
     FM191200 19009KT 3SM BR OVC005
      TEMPO 1912/1914 1/2SM FG VV002
     FM191600 18012KT 6SM BR BKN020
     FM191900 19013KT P6SM BKN040
     FM200000 16005KT P6SM SCT250=

USA.gov is the U.S. government's official web portal to all federal, state and local government web resources and services.